sensor_id;sensor_type;location;lat;lon;timestamp;pressure;altitude;pressure_sealevel;temperature;humidity
28432;BME280;15664;51.302;7.744;2023-02-26T00:00:35;84071.66;;;-146.98;100.00
28432;BME280;15664;51.302;7.744;2023-02-26T00:03:01;84065.56;;;-146.98;99.67
28432;BME280;15664;51.302;7.744;2023-02-26T00:05:26;84059.44;;;-146.98;99.91
28432;BME280;15664;51.302;7.744;2023-02-26T00:07:51;84067.59;;;-146.98;99.75
28432;BME280;15664;51.302;7.744;2023-02-26T00:10:18;84106.28;;;-146.98;99.98
28432;BME280;15664;51.302;7.744;2023-02-26T00:12:44;84016.69;;;-146.98;99.80
28432;BME280;15664;51.302;7.744;2023-02-26T00:15:10;84090.00;;;-146.98;99.98
28432;BME280;15664;51.302;7.744;2023-02-26T00:18:14;84065.56;;;-146.98;100.00
28432;BME280;15664;51.302;7.744;2023-02-26T00:20:40;84081.84;;;-146.98;100.00
28432;BME280;15664;51.302;7.744;2023-02-26T00:23:11;84094.06;;;-146.98;100.00
28432;BME280;15664;51.302;7.744;2023-02-26T00:25:40;84065.56;;;-146.98;100.00
28432;BME280;15664;51.302;7.744;2023-02-26T00:28:07;84049.25;;;-146.98;100.00
28432;BME280;15664;51.302;7.744;2023-02-26T00:30:33;84035.00;;;-146.98;100.00
28432;BME280;15664;51.302;7.744;2023-02-26T00:32:59;84067.59;;;-146.98;100.00
28432;BME280;15664;51.302;7.744;2023-02-26T00:35:25;84049.25;;;-146.98;100.00
28432;BME280;15664;51.302;7.744;2023-02-26T00:42:59;84067.59;;;-146.98;99.87
28432;BME280;15664;51.302;7.744;2023-02-26T00:45:25;84073.72;;;-146.98;99.67
28432;BME280;15664;51.302;7.744;2023-02-26T00:48:21;84071.66;;;-146.98;99.17
28432;BME280;15664;51.302;7.744;2023-02-26T00:51:00;84081.84;;;-146.98;98.83
28432;BME280;15664;51.302;7.744;2023-02-26T00:53:32;84114.44;;;-146.98;99.34
28432;BME280;15664;51.302;7.744;2023-02-26T00:56:00;84041.13;;;-146.98;99.88
28432;BME280;15664;51.302;7.744;2023-02-26T00:58:26;84128.69;;;-146.98;99.95
28432;BME280;15664;51.302;7.744;2023-02-26T01:00:51;84098.16;;;-146.98;99.71
28432;BME280;15664;51.302;7.744;2023-02-26T01:03:16;84098.16;;;-146.98;100.00
28432;BME280;15664;51.302;7.744;2023-02-26T01:05:42;84087.97;;;-146.98;100.00
28432;BME280;15664;51.302;7.744;2023-02-26T01:10:51;84106.28;;;-146.98;100.00
28432;BME280;15664;51.302;7.744;2023-02-26T01:13:17;84047.22;;;-146.98;100.00
28432;BME280;15664;51.302;7.744;2023-02-26T01:15:47;84035.00;;;-146.98;100.00
28432;BME280;15664;51.302;7.744;2023-02-26T01:18:25;84116.47;;;-146.98;100.00
28432;BME280;15664;51.302;7.744;2023-02-26T01:20:56;84081.84;;;-146.98;100.00
28432;BME280;15664;51.302;7.744;2023-02-26T01:23:24;84069.63;;;-146.98;100.00
28432;BME280;15664;51.302;7.744;2023-02-26T01:25:58;84079.81;;;-146.98;100.00
28432;BME280;15664;51.302;7.744;2023-02-26T01:28:26;84053.34;;;-146.98;99.98
28432;BME280;15664;51.302;7.744;2023-02-26T01:31:02;84085.94;;;-146.98;99.66
28432;BME280;15664;51.302;7.744;2023-02-26T01:33:52;84098.16;;;-146.98;98.91
28432;BME280;15664;51.302;7.744;2023-02-26T01:36:21;84087.97;;;-146.98;99.05
28432;BME280;15664;51.302;7.744;2023-02-26T01:39:05;84055.38;;;-146.98;99.19
28432;BME280;15664;51.302;7.744;2023-02-26T01:41:38;84077.78;;;-146.98;99.03
28432;BME280;15664;51.302;7.744;2023-02-26T01:46:56;84124.63;;;-146.98;99.24
28432;BME280;15664;51.302;7.744;2023-02-26T01:49:25;84090.00;;;-146.98;99.02
28432;BME280;15664;51.302;7.744;2023-02-26T01:51:56;84110.38;;;-146.98;99.36
28432;BME280;15664;51.302;7.744;2023-02-26T01:54:24;84098.16;;;-146.98;99.16
28432;BME280;15664;51.302;7.744;2023-02-26T01:56:56;84049.25;;;-146.98;99.00
28432;BME280;15664;51.302;7.744;2023-02-26T01:59:23;84096.09;;;-146.98;99.30
28432;BME280;15664;51.302;7.744;2023-02-26T02:01:53;84106.28;;;-146.98;99.69
28432;BME280;15664;51.302;7.744;2023-02-26T02:04:21;84102.22;;;-146.98;100.00
28432;BME280;15664;51.302;7.744;2023-02-26T02:06:48;84075.75;;;-146.98;100.00
28432;BME280;15664;51.302;7.744;2023-02-26T02:09:14;84085.94;;;-146.98;99.59
28432;BME280;15664;51.302;7.744;2023-02-26T02:11:50;84118.50;;;-146.98;99.83
28432;BME280;15664;51.302;7.744;2023-02-26T02:14:40;84090.00;;;-146.98;98.98
28432;BME280;15664;51.302;7.744;2023-02-26T02:17:13;84073.72;;;-146.98;98.68
28432;BME280;15664;51.302;7.744;2023-02-26T02:22:59;84087.97;;;-146.98;98.37
28432;BME280;15664;51.302;7.744;2023-02-26T02:31:45;84110.38;;;-146.98;97.24
28432;BME280;15664;51.302;7.744;2023-02-26T02:37:04;84094.06;;;-146.98;96.55
28432;BME280;15664;51.302;7.744;2023-02-26T02:39:33;84106.28;;;-146.98;96.62
28432;BME280;15664;51.302;7.744;2023-02-26T02:42:22;84118.50;;;-146.98;97.03
28432;BME280;15664;51.302;7.744;2023-02-26T02:45:00;84110.38;;;-146.98;96.92
28432;BME280;15664;51.302;7.744;2023-02-26T02:47:30;84128.69;;;-146.98;97.39
28432;BME280;15664;51.302;7.744;2023-02-26T02:50:04;84081.84;;;-146.98;96.97
28432;BME280;15664;51.302;7.744;2023-02-26T02:52:37;84055.38;;;-146.98;97.22
28432;BME280;15664;51.302;7.744;2023-02-26T02:55:09;84126.66;;;-146.98;97.05
28432;BME280;15664;51.302;7.744;2023-02-26T02:57:51;84100.19;;;-146.98;97.18
28432;BME280;15664;51.302;7.744;2023-02-26T03:00:21;84102.22;;;-146.98;97.38
28432;BME280;15664;51.302;7.744;2023-02-26T03:02:58;84104.25;;;-146.98;97.85
28432;BME280;15664;51.302;7.744;2023-02-26T03:05:25;84122.59;;;-146.98;97.93
28432;BME280;15664;51.302;7.744;2023-02-26T03:07:59;84110.38;;;-146.98;97.67
28432;BME280;15664;51.302;7.744;2023-02-26T03:10:27;84110.38;;;-146.98;97.43
28432;BME280;15664;51.302;7.744;2023-02-26T03:12:53;84110.38;;;-146.98;97.06
28432;BME280;15664;51.302;7.744;2023-02-26T03:15:26;84124.63;;;-146.98;96.76
28432;BME280;15664;51.302;7.744;2023-02-26T03:18:09;84132.78;;;-146.98;96.88
28432;BME280;15664;51.302;7.744;2023-02-26T03:20:54;84163.31;;;-146.98;96.73
28432;BME280;15664;51.302;7.744;2023-02-26T03:23:27;84138.88;;;-146.98;96.96
28432;BME280;15664;51.302;7.744;2023-02-26T03:26:09;84114.44;;;-146.98;97.47
28432;BME280;15664;51.302;7.744;2023-02-26T03:28:41;84179.63;;;-146.98;97.89
28432;BME280;15664;51.302;7.744;2023-02-26T03:31:25;84155.19;;;-146.98;97.66
28432;BME280;15664;51.302;7.744;2023-02-26T03:34:06;84102.22;;;-146.98;98.15
28432;BME280;15664;51.302;7.744;2023-02-26T03:36:41;84090.00;;;-146.98;98.02
28432;BME280;15664;51.302;7.744;2023-02-26T03:39:22;84161.28;;;-146.98;97.09
28432;BME280;15664;51.302;7.744;2023-02-26T03:44:39;84157.22;;;-146.98;96.98
28432;BME280;15664;51.302;7.744;2023-02-26T03:47:11;84104.25;;;-146.98;97.46
28432;BME280;15664;51.302;7.744;2023-02-26T03:49:43;84151.09;;;-146.98;97.55
28432;BME280;15664;51.302;7.744;2023-02-26T03:52:10;84118.50;;;-146.98;97.53
28432;BME280;15664;51.302;7.744;2023-02-26T03:55:12;84157.22;;;-146.98;97.54
28432;BME280;15664;51.302;7.744;2023-02-26T03:58:02;84163.31;;;-146.98;97.91
28432;BME280;15664;51.302;7.744;2023-02-26T04:00:45;84153.16;;;-146.98;97.87
28432;BME280;15664;51.302;7.744;2023-02-26T04:05:49;84083.88;;;-146.98;97.94
28432;BME280;15664;51.302;7.744;2023-02-26T04:08:17;84134.81;;;-146.98;97.82
28432;BME280;15664;51.302;7.744;2023-02-26T04:10:47;84147.03;;;-146.98;97.70
28432;BME280;15664;51.302;7.744;2023-02-26T04:13:17;84140.91;;;-146.98;97.28
28432;BME280;15664;51.302;7.744;2023-02-26T04:15:42;84134.81;;;-146.98;97.33
28432;BME280;15664;51.302;7.744;2023-02-26T04:18:08;84147.03;;;-146.98;97.21
28432;BME280;15664;51.302;7.744;2023-02-26T04:20:34;84142.97;;;-146.98;96.25
28432;BME280;15664;51.302;7.744;2023-02-26T04:22:59;84147.03;;;-146.98;96.35
28432;BME280;15664;51.302;7.744;2023-02-26T04:25:25;84132.78;;;-146.98;95.80
28432;BME280;15664;51.302;7.744;2023-02-26T04:27:51;84110.38;;;-146.98;95.52
28432;BME280;15664;51.302;7.744;2023-02-26T04:30:17;84126.66;;;-146.98;95.86
28432;BME280;15664;51.302;7.744;2023-02-26T04:32:43;84134.81;;;-146.98;95.57
28432;BME280;15664;51.302;7.744;2023-02-26T04:35:11;84193.88;;;-146.98;95.84
28432;BME280;15664;51.302;7.744;2023-02-26T04:37:37;84130.75;;;-146.98;95.72
28432;BME280;15664;51.302;7.744;2023-02-26T04:40:03;84183.69;;;-146.98;96.17
28432;BME280;15664;51.302;7.744;2023-02-26T04:42:29;84114.44;;;-146.98;96.31
28432;BME280;15664;51.302;7.744;2023-02-26T04:44:55;84130.75;;;-146.98;95.80
28432;BME280;15664;51.302;7.744;2023-02-26T04:47:23;84151.09;;;-146.98;95.63
28432;BME280;15664;51.302;7.744;2023-02-26T04:49:48;84134.81;;;-146.98;95.46
28432;BME280;15664;51.302;7.744;2023-02-26T04:52:14;84132.78;;;-146.98;95.46
28432;BME280;15664;51.302;7.744;2023-02-26T04:54:39;84147.03;;;-146.98;95.34
28432;BME280;15664;51.302;7.744;2023-02-26T04:57:06;84120.56;;;-146.98;95.37
28432;BME280;15664;51.302;7.744;2023-02-26T04:59:32;84094.06;;;-146.98;95.58
28432;BME280;15664;51.302;7.744;2023-02-26T05:01:58;84142.97;;;-146.98;95.37
28432;BME280;15664;51.302;7.744;2023-02-26T05:04:24;84159.25;;;-146.98;95.35
28432;BME280;15664;51.302;7.744;2023-02-26T05:06:53;84171.47;;;-146.98;96.09
28432;BME280;15664;51.302;7.744;2023-02-26T05:09:19;84138.88;;;-146.98;96.22
28432;BME280;15664;51.302;7.744;2023-02-26T05:11:45;84142.97;;;-146.98;96.53
28432;BME280;15664;51.302;7.744;2023-02-26T05:14:11;84202.03;;;-146.98;96.14
28432;BME280;15664;51.302;7.744;2023-02-26T05:16:38;84163.31;;;-146.98;96.06
28432;BME280;15664;51.302;7.744;2023-02-26T05:19:04;84187.78;;;-146.98;96.06
28432;BME280;15664;51.302;7.744;2023-02-26T05:21:29;84181.66;;;-146.98;95.91
28432;BME280;15664;51.302;7.744;2023-02-26T05:23:55;84142.97;;;-146.98;96.08
28432;BME280;15664;51.302;7.744;2023-02-26T05:26:21;84169.44;;;-146.98;96.43
28432;BME280;15664;51.302;7.744;2023-02-26T05:28:47;84181.66;;;-146.98;96.67
28432;BME280;15664;51.302;7.744;2023-02-26T05:31:14;84165.38;;;-146.98;97.07
28432;BME280;15664;51.302;7.744;2023-02-26T05:33:40;84169.44;;;-146.98;96.88
28432;BME280;15664;51.302;7.744;2023-02-26T05:36:08;84159.25;;;-146.98;96.95
28432;BME280;15664;51.302;7.744;2023-02-26T05:38:33;84257.03;;;-146.98;97.24
28432;BME280;15664;51.302;7.744;2023-02-26T05:40:59;84177.59;;;-146.98;97.38
28432;BME280;15664;51.302;7.744;2023-02-26T05:43:26;84147.03;;;-146.98;97.02
28432;BME280;15664;51.302;7.744;2023-02-26T05:45:52;84177.59;;;-146.98;97.10
28432;BME280;15664;51.302;7.744;2023-02-26T05:48:18;84183.69;;;-146.98;96.73
28432;BME280;15664;51.302;7.744;2023-02-26T05:50:44;84100.19;;;-146.98;96.95
28432;BME280;15664;51.302;7.744;2023-02-26T05:53:09;84159.25;;;-146.98;97.11
28432;BME280;15664;51.302;7.744;2023-02-26T05:55:35;84163.31;;;-146.98;97.24
28432;BME280;15664;51.302;7.744;2023-02-26T05:58:01;84163.31;;;-146.98;96.88
28432;BME280;15664;51.302;7.744;2023-02-26T06:00:26;84136.84;;;-146.98;96.88
28432;BME280;15664;51.302;7.744;2023-02-26T06:02:52;84171.47;;;-146.98;96.81
28432;BME280;15664;51.302;7.744;2023-02-26T06:05:18;84159.25;;;-146.98;97.35
28432;BME280;15664;51.302;7.744;2023-02-26T06:07:44;84138.88;;;-146.98;97.34
28432;BME280;15664;51.302;7.744;2023-02-26T06:10:11;84159.25;;;-146.98;97.90
28432;BME280;15664;51.302;7.744;2023-02-26T06:12:37;84167.41;;;-146.98;98.23
28432;BME280;15664;51.302;7.744;2023-02-26T06:15:03;84114.44;;;-146.98;98.47
28432;BME280;15664;51.302;7.744;2023-02-26T06:17:29;84155.19;;;-146.98;98.25
28432;BME280;15664;51.302;7.744;2023-02-26T06:19:54;84126.66;;;-146.98;97.60
28432;BME280;15664;51.302;7.744;2023-02-26T06:22:20;84167.41;;;-146.98;97.66
28432;BME280;15664;51.302;7.744;2023-02-26T06:24:45;84161.28;;;-146.98;97.92
28432;BME280;15664;51.302;7.744;2023-02-26T06:27:11;84183.69;;;-146.98;98.32
28432;BME280;15664;51.302;7.744;2023-02-26T06:29:36;84187.78;;;-146.98;98.40
28432;BME280;15664;51.302;7.744;2023-02-26T06:32:04;84142.97;;;-146.98;98.17
28432;BME280;15664;51.302;7.744;2023-02-26T06:34:31;84171.47;;;-146.98;98.36
28432;BME280;15664;51.302;7.744;2023-02-26T06:36:56;84161.28;;;-146.98;98.13
28432;BME280;15664;51.302;7.744;2023-02-26T06:39:22;84200.00;;;-146.98;98.35
28432;BME280;15664;51.302;7.744;2023-02-26T06:41:48;84187.78;;;-146.98;98.11
28432;BME280;15664;51.302;7.744;2023-02-26T06:44:13;84179.63;;;-146.98;97.93
28432;BME280;15664;51.302;7.744;2023-02-26T06:46:39;84175.56;;;-146.98;97.87
28432;BME280;15664;51.302;7.744;2023-02-26T06:49:05;84179.63;;;-146.98;97.77
28432;BME280;15664;51.302;7.744;2023-02-26T06:51:30;84185.72;;;-146.98;97.93
28432;BME280;15664;51.302;7.744;2023-02-26T06:53:56;84175.56;;;-146.98;98.05
28432;BME280;15664;51.302;7.744;2023-02-26T06:56:22;84179.63;;;-146.98;98.31
28432;BME280;15664;51.302;7.744;2023-02-26T06:58:48;84147.03;;;-146.98;98.04
28432;BME280;15664;51.302;7.744;2023-02-26T07:01:13;84155.19;;;-146.98;98.07
28432;BME280;15664;51.302;7.744;2023-02-26T07:03:39;84140.91;;;-146.98;98.13
28432;BME280;15664;51.302;7.744;2023-02-26T07:06:05;84163.31;;;-146.98;98.26
28432;BME280;15664;51.302;7.744;2023-02-26T07:08:33;84173.50;;;-146.98;98.05
28432;BME280;15664;51.302;7.744;2023-02-26T07:10:59;84189.81;;;-146.98;97.97
28432;BME280;15664;51.302;7.744;2023-02-26T07:13:25;84159.25;;;-146.98;97.47
28432;BME280;15664;51.302;7.744;2023-02-26T07:15:50;84130.75;;;-146.98;97.62
28432;BME280;15664;51.302;7.744;2023-02-26T07:18:15;84177.59;;;-146.98;97.37
28432;BME280;15664;51.302;7.744;2023-02-26T07:20:42;84202.03;;;-146.98;97.22
28432;BME280;15664;51.302;7.744;2023-02-26T07:23:07;84195.91;;;-146.98;97.01
28432;BME280;15664;51.302;7.744;2023-02-26T07:25:33;84189.81;;;-146.98;97.20
28432;BME280;15664;51.302;7.744;2023-02-26T07:27:59;84202.03;;;-146.98;97.11
28432;BME280;15664;51.302;7.744;2023-02-26T07:30:25;84159.25;;;-146.98;96.87
28432;BME280;15664;51.302;7.744;2023-02-26T07:32:50;84149.06;;;-146.98;97.02
28432;BME280;15664;51.302;7.744;2023-02-26T07:35:16;84147.03;;;-146.98;96.44
28432;BME280;15664;51.302;7.744;2023-02-26T07:37:42;84159.25;;;-146.98;95.03
28432;BME280;15664;51.302;7.744;2023-02-26T07:40:08;84116.47;;;-146.98;94.55
28432;BME280;15664;51.302;7.744;2023-02-26T07:42:34;84116.47;;;-146.98;92.52
28432;BME280;15664;51.302;7.744;2023-02-26T07:45:00;84126.66;;;-146.98;91.49
28432;BME280;15664;51.302;7.744;2023-02-26T07:47:27;84124.63;;;-146.98;91.12
28432;BME280;15664;51.302;7.744;2023-02-26T07:49:53;84126.66;;;-146.98;90.01
28432;BME280;15664;51.302;7.744;2023-02-26T07:52:19;84067.59;;;-146.98;89.45
28432;BME280;15664;51.302;7.744;2023-02-26T07:54:44;84085.94;;;-146.98;88.99
28432;BME280;15664;51.302;7.744;2023-02-26T07:57:10;84104.25;;;-146.98;87.70
28432;BME280;15664;51.302;7.744;2023-02-26T07:59:35;84067.59;;;-146.98;87.72
28432;BME280;15664;51.302;7.744;2023-02-26T08:02:01;84057.41;;;-146.98;87.57
28432;BME280;15664;51.302;7.744;2023-02-26T08:04:26;84100.19;;;-146.98;87.33
28432;BME280;15664;51.302;7.744;2023-02-26T08:06:51;84087.97;;;-146.98;87.01
28432;BME280;15664;51.302;7.744;2023-02-26T08:09:20;84037.03;;;-146.98;85.93
28432;BME280;15664;51.302;7.744;2023-02-26T08:11:46;84073.72;;;-146.98;85.33
28432;BME280;15664;51.302;7.744;2023-02-26T08:14:12;84045.19;;;-146.98;83.02
28432;BME280;15664;51.302;7.744;2023-02-26T08:16:37;84030.94;;;-146.98;81.70
28432;BME280;15664;51.302;7.744;2023-02-26T08:19:03;84061.47;;;-146.98;81.33
28432;BME280;15664;51.302;7.744;2023-02-26T08:21:29;84020.75;;;-146.98;81.23
28432;BME280;15664;51.302;7.744;2023-02-26T08:23:55;83984.09;;;-146.98;80.95
28432;BME280;15664;51.302;7.744;2023-02-26T08:26:21;83992.22;;;-146.98;81.50
28432;BME280;15664;51.302;7.744;2023-02-26T08:28:47;83980.00;;;-146.98;77.31
28432;BME280;15664;51.302;7.744;2023-02-26T08:31:13;83988.16;;;-146.98;77.63
28432;BME280;15664;51.302;7.744;2023-02-26T08:33:39;83986.13;;;-146.98;77.77
28432;BME280;15664;51.302;7.744;2023-02-26T08:36:06;83955.56;;;-146.98;77.42
28432;BME280;15664;51.302;7.744;2023-02-26T08:38:32;84004.44;;;-146.98;75.76
28432;BME280;15664;51.302;7.744;2023-02-26T08:40:57;83961.69;;;-146.98;77.09
28432;BME280;15664;51.302;7.744;2023-02-26T08:43:22;83925.03;;;-146.98;73.89
28432;BME280;15664;51.302;7.744;2023-02-26T08:45:51;83894.47;;;-146.98;72.50
28432;BME280;15664;51.302;7.744;2023-02-26T08:48:17;83847.63;;;-146.98;70.29
28432;BME280;15664;51.302;7.744;2023-02-26T08:50:42;83843.53;;;-146.98;65.46
28432;BME280;15664;51.302;7.744;2023-02-26T08:53:08;83851.69;;;-146.98;67.18
28432;BME280;15664;51.302;7.744;2023-02-26T08:55:34;83908.72;;;-146.98;69.22
28432;BME280;15664;51.302;7.744;2023-02-26T08:57:59;83922.97;;;-146.98;71.65
28432;BME280;15664;51.302;7.744;2023-02-26T09:00:25;83927.06;;;-146.98;71.83
28432;BME280;15664;51.302;7.744;2023-02-26T09:02:50;83886.31;;;-146.98;69.77
28432;BME280;15664;51.302;7.744;2023-02-26T09:05:16;83931.13;;;-146.98;68.54
28432;BME280;15664;51.302;7.744;2023-02-26T09:07:43;83927.06;;;-146.98;69.67
28432;BME280;15664;51.302;7.744;2023-02-26T09:10:10;83967.78;;;-146.98;70.15
28432;BME280;15664;51.302;7.744;2023-02-26T09:12:35;83929.09;;;-146.98;70.21
28432;BME280;15664;51.302;7.744;2023-02-26T09:15:06;83947.41;;;-146.98;72.05
28432;BME280;15664;51.302;7.744;2023-02-26T09:17:32;83957.59;;;-146.98;73.11
28432;BME280;15664;51.302;7.744;2023-02-26T09:19:58;83953.53;;;-146.98;72.81
28432;BME280;15664;51.302;7.744;2023-02-26T09:22:23;83947.41;;;-146.98;74.59
28432;BME280;15664;51.302;7.744;2023-02-26T09:24:49;83939.28;;;-146.98;72.61
28432;BME280;15664;51.302;7.744;2023-02-26T09:27:15;83896.50;;;-146.98;70.50
28432;BME280;15664;51.302;7.744;2023-02-26T09:29:41;83910.75;;;-146.98;69.65
28432;BME280;15664;51.302;7.744;2023-02-26T09:32:06;83880.22;;;-146.98;70.92
28432;BME280;15664;51.302;7.744;2023-02-26T09:34:36;83813.00;;;-146.98;68.38
28432;BME280;15664;51.302;7.744;2023-02-26T09:37:07;83800.78;;;-146.98;62.28
28432;BME280;15664;51.302;7.744;2023-02-26T09:39:34;83853.72;;;-146.98;63.42
28432;BME280;15664;51.302;7.744;2023-02-26T09:42:36;83784.47;;;-146.98;64.42
28432;BME280;15664;51.302;7.744;2023-02-26T09:45:11;83874.09;;;-146.98;64.91
28432;BME280;15664;51.302;7.744;2023-02-26T09:47:47;83859.84;;;-146.98;65.16
28432;BME280;15664;51.302;7.744;2023-02-26T09:50:24;83829.28;;;-146.98;66.28
28432;BME280;15664;51.302;7.744;2023-02-26T09:53:02;83827.25;;;-146.98;64.06
28432;BME280;15664;51.302;7.744;2023-02-26T09:55:33;83855.75;;;-146.98;61.33
28432;BME280;15664;51.302;7.744;2023-02-26T09:58:01;83796.69;;;-146.98;62.29
28432;BME280;15664;51.302;7.744;2023-02-26T10:00:36;83870.03;;;-146.98;63.06
28432;BME280;15664;51.302;7.744;2023-02-26T10:03:19;83914.84;;;-146.98;64.54
28432;BME280;15664;51.302;7.744;2023-02-26T10:06:07;83914.84;;;-146.98;65.38
28432;BME280;15664;51.302;7.744;2023-02-26T10:08:46;83896.50;;;-146.98;65.75
28432;BME280;15664;51.302;7.744;2023-02-26T10:14:29;83916.88;;;-146.98;66.24
28432;BME280;15664;51.302;7.744;2023-02-26T10:17:06;83931.13;;;-146.98;66.58
28432;BME280;15664;51.302;7.744;2023-02-26T10:19:36;83894.47;;;-146.98;65.94
28432;BME280;15664;51.302;7.744;2023-02-26T10:22:35;83904.66;;;-146.98;63.40
28432;BME280;15664;51.302;7.744;2023-02-26T10:25:11;83874.09;;;-146.98;60.85
28432;BME280;15664;51.302;7.744;2023-02-26T10:28:31;83715.22;;;-146.98;58.43
28432;BME280;15664;51.302;7.744;2023-02-26T10:31:08;83692.81;;;-146.98;52.74
28432;BME280;15664;51.302;7.744;2023-02-26T10:34:04;83770.22;;;-146.98;54.65
28432;BME280;15664;51.302;7.744;2023-02-26T10:36:46;83762.06;;;-146.98;53.33
28432;BME280;15664;51.302;7.744;2023-02-26T10:39:37;83776.34;;;-146.98;56.51
28432;BME280;15664;51.302;7.744;2023-02-26T10:42:14;83849.66;;;-146.98;55.76
28432;BME280;15664;51.302;7.744;2023-02-26T10:44:52;83874.09;;;-146.98;58.34
28432;BME280;15664;51.302;7.744;2023-02-26T10:47:36;83865.94;;;-146.98;57.60
28432;BME280;15664;51.302;7.744;2023-02-26T10:50:09;83863.91;;;-146.98;60.17
28432;BME280;15664;51.302;7.744;2023-02-26T10:52:37;83849.66;;;-146.98;60.44
28432;BME280;15664;51.302;7.744;2023-02-26T10:55:12;83788.56;;;-146.98;58.33
28432;BME280;15664;51.302;7.744;2023-02-26T10:57:53;83658.19;;;-146.98;54.08
28432;BME280;15664;51.302;7.744;2023-02-26T11:00:20;83694.88;;;-146.98;52.77
28432;BME280;15664;51.302;7.744;2023-02-26T11:02:51;83686.72;;;-146.98;54.68
28432;BME280;15664;51.302;7.744;2023-02-26T11:05:24;83780.41;;;-146.98;55.81
28432;BME280;15664;51.302;7.744;2023-02-26T11:07:55;83780.41;;;-146.98;55.72
28432;BME280;15664;51.302;7.744;2023-02-26T11:10:30;83835.41;;;-146.98;55.77
28432;BME280;15664;51.302;7.744;2023-02-26T11:13:00;83859.84;;;-146.98;58.20
28432;BME280;15664;51.302;7.744;2023-02-26T11:15:26;83792.63;;;-146.98;57.03
28432;BME280;15664;51.302;7.744;2023-02-26T11:17:56;83865.94;;;-146.98;55.37
28432;BME280;15664;51.302;7.744;2023-02-26T11:20:32;83784.47;;;-146.98;55.07
28432;BME280;15664;51.302;7.744;2023-02-26T11:23:01;83857.81;;;-146.98;55.87
28432;BME280;15664;51.302;7.744;2023-02-26T11:25:31;83868.00;;;-146.98;55.49
28432;BME280;15664;51.302;7.744;2023-02-26T11:28:21;83886.31;;;-146.98;54.15
28432;BME280;15664;51.302;7.744;2023-02-26T11:30:50;83859.84;;;-146.98;55.63
28432;BME280;15664;51.302;7.744;2023-02-26T11:33:35;83849.66;;;-146.98;52.48
28432;BME280;15664;51.302;7.744;2023-02-26T11:36:04;83821.13;;;-146.98;50.27
28432;BME280;15664;51.302;7.744;2023-02-26T11:38:32;83766.16;;;-146.98;47.98
28432;BME280;15664;51.302;7.744;2023-02-26T11:40:59;83698.94;;;-146.98;46.83
28432;BME280;15664;51.302;7.744;2023-02-26T11:43:34;83668.38;;;-146.98;44.20
28432;BME280;15664;51.302;7.744;2023-02-26T11:46:01;83540.06;;;-146.98;44.33
28432;BME280;15664;51.302;7.744;2023-02-26T11:51:03;83454.53;;;-146.98;41.35
28432;BME280;15664;51.302;7.744;2023-02-26T11:53:35;83458.63;;;-146.98;39.89
28432;BME280;15664;51.302;7.744;2023-02-26T11:56:07;83442.31;;;-146.98;40.15
28432;BME280;15664;51.302;7.744;2023-02-26T11:58:37;83472.88;;;-146.98;40.04
28432;BME280;15664;51.302;7.744;2023-02-26T12:01:05;83421.97;;;-146.98;39.06
28432;BME280;15664;51.302;7.744;2023-02-26T12:03:33;83428.06;;;-146.98;39.13
28432;BME280;15664;51.302;7.744;2023-02-26T12:06:01;83369.00;;;-146.98;40.92
28432;BME280;15664;51.302;7.744;2023-02-26T12:08:31;83254.97;;;-146.98;37.69
28432;BME280;15664;51.302;7.744;2023-02-26T12:11:29;83261.06;;;-146.98;37.94
28432;BME280;15664;51.302;7.744;2023-02-26T12:16:37;83413.81;;;-146.98;37.37
28432;BME280;15664;51.302;7.744;2023-02-26T12:19:16;83397.53;;;-146.98;36.29
28432;BME280;15664;51.302;7.744;2023-02-26T12:21:58;83356.78;;;-146.98;36.93
28432;BME280;15664;51.302;7.744;2023-02-26T12:27:36;83409.75;;;-146.98;36.45
28432;BME280;15664;51.302;7.744;2023-02-26T12:30:22;83303.84;;;-146.98;37.00
28432;BME280;15664;51.302;7.744;2023-02-26T12:33:13;83299.75;;;-146.98;36.34
28432;BME280;15664;51.302;7.744;2023-02-26T12:39:07;83360.88;;;-146.98;37.32
28432;BME280;15664;51.302;7.744;2023-02-26T12:41:43;83344.56;;;-146.98;37.17
28432;BME280;15664;51.302;7.744;2023-02-26T12:44:26;83332.34;;;-146.98;38.38
28432;BME280;15664;51.302;7.744;2023-02-26T12:47:25;83350.69;;;-146.98;38.44
28432;BME280;15664;51.302;7.744;2023-02-26T12:50:20;83369.00;;;-146.98;38.00
28432;BME280;15664;51.302;7.744;2023-02-26T12:52:58;83407.69;;;-146.98;38.21
28432;BME280;15664;51.302;7.744;2023-02-26T12:55:50;83487.13;;;-146.98;38.45
28432;BME280;15664;51.302;7.744;2023-02-26T13:01:30;83478.97;;;-146.98;39.25
28432;BME280;15664;51.302;7.744;2023-02-26T13:10:26;83430.09;;;-146.98;37.43
28432;BME280;15664;51.302;7.744;2023-02-26T13:15:42;83322.16;;;-146.98;35.60
28432;BME280;15664;51.302;7.744;2023-02-26T13:18:42;83252.94;;;-146.98;35.84
28432;BME280;15664;51.302;7.744;2023-02-26T13:21:24;83442.31;;;-146.98;36.82
28432;BME280;15664;51.302;7.744;2023-02-26T13:26:34;83417.88;;;-146.98;36.48
28432;BME280;15664;51.302;7.744;2023-02-26T13:31:40;83334.38;;;-146.98;36.41
28432;BME280;15664;51.302;7.744;2023-02-26T13:34:22;83277.38;;;-146.98;35.77
28432;BME280;15664;51.302;7.744;2023-02-26T13:36:50;83202.00;;;-146.98;34.66
28432;BME280;15664;51.302;7.744;2023-02-26T13:39:45;83163.31;;;-146.98;35.02
28432;BME280;15664;51.302;7.744;2023-02-26T13:47:37;83536.00;;;-146.98;37.78
28432;BME280;15664;51.302;7.744;2023-02-26T13:50:33;83613.41;;;-146.98;39.63
28432;BME280;15664;51.302;7.744;2023-02-26T13:53:04;83625.63;;;-146.98;39.49
28432;BME280;15664;51.302;7.744;2023-02-26T13:55:55;83499.34;;;-146.98;39.25
28432;BME280;15664;51.302;7.744;2023-02-26T13:58:37;83478.97;;;-146.98;38.33
28432;BME280;15664;51.302;7.744;2023-02-26T14:01:27;83338.47;;;-146.98;35.70
28432;BME280;15664;51.302;7.744;2023-02-26T14:04:21;83352.72;;;-146.98;35.94
28432;BME280;15664;51.302;7.744;2023-02-26T14:07:05;83242.75;;;-146.98;35.09